createdAt,value
2023-04-06T00:02:53.358Z,6.31
2023-04-06T00:07:57.139Z,6.48
2023-04-06T00:13:01.181Z,6.40
2023-04-06T00:18:04.481Z,6.06
2023-04-06T00:23:07.349Z,6.53
2023-04-06T00:28:09.950Z,6.99
2023-04-06T00:33:12.676Z,6.79
2023-04-06T00:38:16.960Z,6.94
2023-04-06T00:43:19.788Z,7.25
2023-04-06T00:48:22.488Z,7.12
2023-04-06T00:53:25.121Z,6.89
2023-04-06T00:58:29.152Z,6.94
2023-04-06T01:03:39.657Z,6.74
2023-04-06T01:08:43.319Z,6.47
2023-04-06T01:13:53.643Z,6.22
2023-04-06T01:19:11.000Z,6.50
2023-04-06T01:24:15.966Z,6.79
2023-04-06T01:29:34.090Z,5.95
2023-04-06T01:34:38.812Z,4.97
2023-04-06T01:39:44.520Z,5.46
2023-04-06T01:44:53.793Z,5.91
2023-04-06T01:49:56.582Z,6.46
2023-04-06T01:55:00.203Z,5.76
2023-04-06T02:00:25.054Z,5.74
2023-04-06T02:05:32.519Z,6.24
2023-04-06T02:10:36.478Z,5.96
2023-04-06T02:15:48.048Z,5.97
2023-04-06T02:20:50.771Z,6.29
2023-04-06T02:25:53.646Z,6.23
2023-04-06T02:30:56.369Z,5.44
2023-04-06T02:36:03.028Z,5.45
2023-04-06T02:41:06.217Z,5.61
2023-04-06T02:46:09.089Z,5.59
2023-04-06T02:51:14.892Z,5.36
2023-04-06T02:56:22.728Z,5.26
2023-04-06T03:01:28.349Z,5.27
2023-04-06T03:06:35.610Z,5.54
2023-04-06T03:11:49.117Z,5.26
2023-04-06T03:16:51.943Z,5.40
2023-04-06T03:21:57.947Z,5.65
2023-04-06T03:27:01.597Z,5.59
2023-04-06T03:32:05.525Z,5.85
2023-04-06T03:37:12.914Z,5.63
2023-04-06T03:42:23.101Z,5.62
2023-04-06T03:47:29.680Z,5.09
2023-04-06T03:52:37.674Z,5.59
2023-04-06T03:57:40.679Z,6.01
2023-04-06T04:02:43.304Z,6.01
2023-04-06T04:07:46.346Z,5.80
2023-04-06T04:12:49.425Z,6.03
2023-04-06T04:17:52.219Z,6.19
2023-04-06T04:22:54.906Z,6.57
2023-04-06T04:27:57.831Z,6.45
2023-04-06T04:33:01.324Z,6.45
2023-04-06T04:38:05.157Z,6.66
2023-04-06T04:43:09.929Z,6.57
2023-04-06T04:48:12.604Z,5.77
2023-04-06T04:53:26.345Z,5.59
2023-04-06T04:58:34.663Z,6.10
2023-04-06T05:03:40.170Z,6.40
2023-04-06T05:08:48.324Z,5.96
2023-04-06T05:13:52.026Z,6.49
2023-04-06T05:18:58.705Z,6.74
2023-04-06T05:24:08.445Z,6.67
2023-04-06T05:29:12.471Z,6.77
2023-04-06T05:34:17.160Z,6.81
2023-04-06T05:39:20.648Z,7.06
2023-04-06T05:44:28.157Z,7.52
2023-04-06T05:49:39.733Z,7.73
2023-04-06T05:54:48.432Z,8.02
2023-04-06T05:59:51.170Z,8.31
2023-04-06T06:04:55.686Z,8.43
2023-04-06T06:10:01.139Z,8.81
2023-04-06T06:15:08.806Z,9.01
2023-04-06T06:20:16.426Z,9.27
2023-04-06T06:25:22.518Z,9.61
2023-04-06T06:30:27.369Z,9.88
2023-04-06T06:35:30.231Z,9.94
2023-04-06T06:40:35.644Z,9.20
2023-04-06T06:45:39.574Z,9.64
2023-04-06T06:50:42.485Z,10.00
2023-04-06T06:55:45.854Z,10.50
2023-04-06T07:00:49.091Z,10.83
2023-04-06T07:05:55.482Z,11.08
2023-04-06T07:11:00.065Z,11.36
2023-04-06T07:16:02.760Z,11.45
2023-04-06T07:21:06.272Z,11.36
2023-04-06T07:26:08.962Z,11.57
2023-04-06T07:31:13.729Z,12.40
2023-04-06T07:36:16.937Z,13.11
2023-04-06T07:41:20.509Z,13.17
2023-04-06T07:46:23.813Z,13.69
2023-04-06T07:51:27.480Z,14.52
2023-04-06T07:56:30.569Z,15.33
2023-04-06T08:01:33.277Z,16.05
2023-04-06T08:06:37.512Z,16.45
2023-04-06T08:11:40.161Z,16.99
2023-04-06T08:16:43.068Z,17.50
2023-04-06T08:21:49.375Z,18.02
2023-04-06T08:26:52.577Z,18.53
2023-04-06T08:31:55.351Z,19.14
2023-04-06T08:37:01.348Z,19.58
2023-04-06T08:42:04.406Z,20.07
2023-04-06T08:47:07.939Z,21.03
2023-04-06T08:52:12.593Z,21.45
2023-04-06T08:57:16.778Z,21.81
2023-04-06T09:02:20.506Z,22.64
2023-04-06T09:07:23.414Z,23.05
2023-04-06T09:12:30.618Z,23.59
2023-04-06T09:17:34.890Z,24.02
2023-04-06T09:22:42.536Z,23.64
2023-04-06T09:27:45.684Z,23.96
2023-04-06T09:32:53.207Z,24.40
2023-04-06T09:37:56.581Z,24.79
2023-04-06T09:43:00.589Z,25.10
2023-04-06T09:48:04.891Z,25.50
2023-04-06T09:53:09.102Z,25.68
2023-04-06T09:58:27.598Z,26.60
2023-04-06T10:03:52.352Z,27.01
2023-04-06T10:08:57.549Z,27.18
2023-04-06T10:14:00.813Z,27.29
2023-04-06T10:19:22.929Z,25.54
2023-04-06T10:24:26.215Z,27.08
2023-04-06T10:29:29.237Z,27.29
2023-04-06T10:34:37.053Z,24.95
2023-04-06T10:39:49.367Z,25.92
2023-04-06T10:44:52.122Z,26.32
2023-04-06T10:49:54.742Z,24.97
2023-04-06T10:54:58.133Z,26.27
2023-04-06T11:00:00.719Z,27.49
2023-04-06T11:05:03.718Z,28.57
2023-04-06T11:10:16.717Z,28.01
2023-04-06T11:15:21.763Z,28.12
2023-04-06T11:20:24.521Z,28.33
2023-04-06T11:25:28.876Z,27.30
2023-04-06T11:30:31.580Z,27.92
2023-04-06T11:35:35.781Z,28.10
2023-04-06T11:40:38.412Z,28.57
2023-04-06T11:45:44.667Z,26.92
2023-04-06T11:50:56.143Z,25.60
2023-04-06T11:55:59.042Z,26.87
2023-04-06T12:01:07.645Z,26.67
2023-04-06T12:06:10.387Z,26.77
2023-04-06T12:11:13.856Z,26.23
2023-04-06T12:16:17.164Z,24.31
2023-04-06T12:21:20.061Z,24.30
2023-04-06T12:26:26.746Z,24.12
2023-04-06T12:31:29.486Z,24.04
2023-04-06T12:36:32.659Z,23.47
2023-04-06T12:41:35.621Z,24.47
2023-04-06T12:46:38.270Z,23.54
2023-04-06T12:51:40.922Z,21.72
2023-04-06T12:56:43.698Z,21.58
2023-04-06T13:01:46.847Z,22.50
2023-04-06T13:06:50.473Z,23.34
2023-04-06T13:11:53.181Z,23.69
2023-04-06T13:16:55.953Z,23.81
2023-04-06T13:21:58.663Z,23.98
2023-04-06T13:27:01.901Z,23.72
2023-04-06T13:32:04.733Z,24.83
2023-04-06T13:37:07.481Z,27.42
2023-04-06T13:42:11.186Z,28.01
2023-04-06T13:47:14.221Z,26.31
2023-04-06T13:52:17.371Z,23.88
2023-04-06T13:57:20.297Z,21.96
2023-04-06T14:02:28.545Z,22.97
2023-04-06T14:07:31.628Z,22.67
2023-04-06T14:12:34.247Z,24.33
2023-04-06T14:17:36.841Z,24.30
2023-04-06T14:22:39.446Z,23.52
2023-04-06T14:27:42.072Z,23.16
2023-04-06T14:32:44.678Z,21.78
2023-04-06T14:37:48.511Z,20.97
2023-04-06T14:42:53.960Z,20.33
2023-04-06T14:47:56.585Z,20.25
2023-04-06T14:52:59.345Z,20.18
2023-04-06T14:58:01.930Z,20.64
2023-04-06T15:03:05.085Z,20.21
2023-04-06T15:08:07.896Z,19.43
2023-04-06T15:13:10.493Z,19.64
2023-04-06T15:18:14.890Z,19.14
2023-04-06T15:23:17.881Z,18.60
2023-04-06T15:28:20.856Z,18.13
2023-04-06T15:33:23.396Z,17.89
2023-04-06T15:38:25.951Z,18.25
2023-04-06T15:43:28.683Z,18.35
2023-04-06T15:48:32.154Z,18.41
2023-04-06T15:53:36.306Z,18.40
2023-04-06T15:58:40.657Z,18.25
2023-04-06T16:03:43.942Z,18.10
2023-04-06T16:08:47.333Z,18.07
2023-04-06T16:13:55.235Z,17.78
2023-04-06T16:18:58.078Z,17.68
2023-04-06T16:24:01.011Z,17.61
2023-04-06T16:29:03.968Z,17.58
2023-04-06T16:34:07.292Z,17.58
2023-04-06T16:39:10.264Z,17.45
2023-04-06T16:44:13.263Z,17.26
2023-04-06T16:49:17.743Z,17.14
2023-04-06T16:54:20.609Z,16.96
2023-04-06T16:59:23.453Z,16.97
2023-04-06T17:04:26.172Z,16.84
2023-04-06T17:09:28.787Z,16.81
2023-04-06T17:14:31.483Z,16.59
2023-04-06T17:19:34.026Z,16.60
2023-04-06T17:24:36.600Z,16.20
2023-04-06T17:29:39.218Z,16.19
2023-04-06T17:34:41.741Z,16.01
2023-04-06T17:39:44.691Z,15.91
2023-04-06T17:44:52.411Z,15.87
2023-04-06T17:49:55.621Z,15.95
2023-04-06T17:54:58.340Z,15.92
2023-04-06T18:00:00.899Z,15.80
2023-04-06T18:05:03.840Z,15.69
2023-04-06T18:10:07.177Z,15.53
2023-04-06T18:15:09.915Z,15.52
2023-04-06T18:20:14.270Z,15.38
2023-04-06T18:25:19.017Z,15.51
2023-04-06T18:30:21.764Z,15.53
2023-04-06T18:35:24.408Z,15.46
2023-04-06T18:40:40.556Z,15.33
2023-04-06T18:45:46.195Z,15.33
2023-04-06T18:51:00.130Z,15.37
2023-04-06T18:56:03.826Z,15.32
2023-04-06T19:01:06.958Z,15.29
2023-04-06T19:06:09.470Z,15.24
2023-04-06T19:11:12.170Z,15.21
2023-04-06T19:16:14.692Z,15.20
2023-04-06T19:21:21.705Z,14.91
2023-04-06T19:26:28.062Z,14.88
2023-04-06T19:31:30.862Z,14.43
2023-04-06T19:36:33.598Z,14.17
2023-04-06T19:41:36.527Z,14.12
2023-04-06T19:46:39.218Z,13.79
2023-04-06T19:51:41.799Z,13.64
2023-04-06T19:56:44.447Z,13.42
2023-04-06T20:01:47.372Z,13.07
2023-04-06T20:06:51.338Z,13.05
2023-04-06T20:11:54.574Z,12.60
2023-04-06T20:16:57.427Z,12.82
2023-04-06T20:22:03.345Z,12.75
2023-04-06T20:27:06.401Z,12.71
2023-04-06T20:32:10.112Z,12.52
2023-04-06T20:37:12.857Z,11.91
2023-04-06T20:42:15.459Z,11.86
2023-04-06T20:47:18.447Z,11.63
2023-04-06T20:52:21.459Z,11.52
2023-04-06T20:57:25.806Z,11.64
2023-04-06T21:02:28.739Z,11.84
2023-04-06T21:07:31.607Z,11.57
2023-04-06T21:12:34.146Z,11.57
2023-04-06T21:17:36.964Z,11.50
2023-04-06T21:22:39.732Z,11.03
2023-04-06T21:27:42.288Z,11.07
2023-04-06T21:32:45.069Z,10.85
2023-04-06T21:37:48.103Z,11.22
2023-04-06T21:42:51.079Z,11.32
2023-04-06T21:47:53.963Z,10.47
2023-04-06T21:52:56.584Z,9.99
2023-04-06T21:57:59.363Z,10.27
2023-04-06T22:03:02.272Z,10.41
2023-04-06T22:08:05.175Z,10.30
2023-04-06T22:13:07.813Z,10.16
2023-04-06T22:18:10.526Z,9.91
2023-04-06T22:23:13.332Z,10.39
2023-04-06T22:28:15.974Z,10.17
2023-04-06T22:33:19.173Z,9.92
2023-04-06T22:38:21.849Z,9.82
2023-04-06T22:43:24.388Z,10.23
2023-04-06T22:48:27.008Z,10.40
2023-04-06T22:53:29.569Z,10.06
2023-04-06T22:58:32.088Z,9.76
2023-04-06T23:03:34.889Z,9.64
2023-04-06T23:08:37.472Z,9.66
2023-04-06T23:13:40.756Z,9.64
2023-04-06T23:18:43.296Z,9.85
2023-04-06T23:23:46.248Z,10.00
2023-04-06T23:28:49.140Z,9.89
2023-04-06T23:33:51.847Z,9.58
2023-04-06T23:38:54.548Z,9.69
2023-04-06T23:43:57.239Z,9.29
2023-04-06T23:48:59.921Z,9.28
2023-04-06T23:54:02.541Z,9.37
2023-04-06T23:59:07.626Z,9.41
